Time;durP1;ratioP1;P1;durP2;ratioP2;P2;SDS_P1;SDS_P2;PMS_P1;PMS_P2;Temp;Humidity;BMP_temperature;BMP_pressure;BME280_temperature;BME280_humidity;BME280_pressure;Samples;Min_cycle;Max_cycle;Signal;HPM_P1;HPM_P2
2024/01/07 09:46:11;;;;;;;7.57;5.77;;;;;;;6.00;73.04;98962.50;6350613;22;38919;-87
2024/01/07 09:48:39;;;;;;;6.73;5.40;;;;;;;5.96;72.14;98946.91;6296144;22;43668;-87
2024/01/07 09:51:38;;;;;;;6.27;5.47;;;;;;;6.02;72.16;98970.31;6296663;22;41738;-87
2024/01/07 09:54:14;;;;;;;7.70;4.90;;;;;;;6.02;72.32;98958.03;6296433;22;39194;-86
2024/01/07 09:57:08;;;;;;;6.17;4.80;;;;;;;5.87;71.48;98953.38;6323214;22;40710;-86
2024/01/07 09:59:56;;;;;;;7.33;5.13;;;;;;;5.99;71.75;98957.28;6322772;22;42084;-85
2024/01/07 10:02:25;;;;;;;8.53;5.90;;;;;;;6.07;70.89;98971.81;6296920;22;41362;-87
2024/01/07 10:04:53;;;;;;;7.10;5.73;;;;;;;5.81;70.39;98952.78;6296487;22;39013;-85
2024/01/07 10:07:21;;;;;;;8.00;5.60;;;;;;;5.87;70.29;98973.53;6296726;22;41006;-85
2024/01/07 10:10:12;;;;;;;7.83;5.63;;;;;;;6.03;70.67;98980.78;6322809;22;43078;-88
2024/01/07 10:12:42;;;;;;;7.97;5.40;;;;;;;5.95;70.44;98985.47;6296980;22;41287;-89
2024/01/07 10:15:25;;;;;;;8.63;5.37;;;;;;;5.57;70.26;98944.13;6296865;22;39245;-89
2024/01/07 10:18:05;;;;;;;6.13;4.87;;;;;;;5.91;70.51;98999.69;6296560;22;41605;-86
2024/01/07 10:20:40;;;;;;;6.73;4.80;;;;;;;5.71;69.86;99000.44;6322416;22;44497;-87
2024/01/07 10:23:12;;;;;;;6.83;5.03;;;;;;;5.58;70.09;98978.22;6322757;22;43908;-90
2024/01/07 10:25:40;;;;;;;7.47;5.60;;;;;;;5.59;69.74;99000.94;6321875;22;39430;-88
2024/01/07 10:28:08;;;;;;;7.77;5.40;;;;;;;5.14;70.42;98924.84;6296622;22;42316;-90
2024/01/07 10:30:41;;;;;;;7.87;5.27;;;;;;;5.40;70.45;98992.94;6296971;22;41746;-90
2024/01/07 10:33:10;;;;;;;10.30;4.97;;;;;;;5.04;70.28;98939.25;6296363;22;42378;-89
2024/01/07 10:35:41;;;;;;;7.63;5.17;;;;;;;5.33;70.42;99004.59;6322988;22;40405;-89
2024/01/07 10:38:09;;;;;;;6.00;4.80;;;;;;;5.15;70.50;99000.06;6322169;22;40476;-88
2024/01/07 10:40:38;;;;;;;7.37;5.50;;;;;;;5.20;70.95;99007.75;6319163;22;42174;-87
2024/01/07 10:43:21;;;;;;;5.70;4.67;;;;;;;5.18;71.32;99007.84;6289787;22;41329;-88
2024/01/07 10:45:49;;;;;;;6.90;5.23;;;;;;;4.98;72.23;98981.47;6289537;22;40218;-87
2024/01/07 10:48:20;;;;;;;7.07;4.97;;;;;;;5.14;71.91;99003.59;6289466;22;40899;-87
2024/01/07 10:50:50;;;;;;;6.97;5.00;;;;;;;5.03;71.75;98997.91;6315311;22;43826;-86
2024/01/07 10:53:22;;;;;;;6.23;4.70;;;;;;;5.00;71.15;99006.75;6315922;22;42243;-89
2024/01/07 10:55:55;;;;;;;7.63;4.80;;;;;;;4.89;71.71;98979.19;6290000;22;39258;-89
2024/01/07 10:58:24;;;;;;;7.77;5.23;;;;;;;5.07;71.46;99023.09;6288876;22;43333;-88
2024/01/07 11:00:52;;;;;;;5.60;4.57;;;;;;;4.74;71.58;98995.50;6288599;22;42799;-87
2024/01/07 11:03:42;;;;;;;6.90;4.83;;;;;;;4.65;70.77;99010.69;6289604;22;42338;-87
2024/01/07 11:06:34;;;;;;;5.00;4.47;;;;;;;4.70;71.73;99024.47;6289320;22;39905;-87
2024/01/07 11:09:08;;;;;;;5.60;4.33;;;;;;;4.44;71.63;98977.38;6314653;22;43161;-88
2024/01/07 11:11:47;;;;;;;6.13;4.77;;;;;;;4.21;71.96;98965.03;6289707;22;42526;-88
2024/01/07 11:14:39;;;;;;;6.37;5.13;;;;;;;4.34;73.08;98976.81;6314978;22;42449;-89
2024/01/07 11:17:10;;;;;;;5.37;4.57;;;;;;;4.38;73.01;98984.56;6289463;22;39308;-88
2024/01/07 11:19:41;;;;;;;6.90;4.60;;;;;;;4.57;73.01;99017.13;6288975;22;41403;-88
2024/01/07 13:56:48;;;;;;;8.43;4.30;;;;;;;0.53;94.66;99061.31;5109345;28;20611;-90
2024/01/07 13:59:17;;;;;;;8.20;4.10;;;;;;;1.12;91.30;99107.94;5089863;28;39177;-89
2024/01/07 14:01:53;;;;;;;6.17;4.10;;;;;;;1.59;87.19;99120.84;5090958;28;43583;-87
2024/01/07 14:04:20;;;;;;;4.57;3.63;;;;;;;1.94;83.41;99111.34;5089725;28;43577;-87
2024/01/07 14:06:49;;;;;;;5.47;3.87;;;;;;;2.24;80.29;99139.31;5091060;28;41199;-91
2024/01/07 14:09:19;;;;;;;5.07;3.50;;;;;;;2.48;79.59;99136.09;5089902;28;38924;-88
2024/01/07 14:11:48;;;;;;;5.27;3.80;;;;;;;2.45;77.21;99135.34;5091123;28;42011;-86
2024/01/07 14:14:15;;;;;;;5.47;3.57;;;;;;;2.67;76.08;99146.09;5090229;28;41734;-86
2024/01/07 14:16:45;;;;;;;5.33;3.47;;;;;;;2.63;74.92;99131.38;5091122;28;41480;-87
2024/01/07 14:19:14;;;;;;;4.97;3.30;;;;;;;2.72;74.32;99157.31;5089352;28;38916;-86
2024/01/07 14:21:43;;;;;;;6.67;3.67;;;;;;;2.82;73.99;99167.47;5090887;28;42478;-87
2024/01/07 14:24:15;;;;;;;5.47;3.40;;;;;;;2.89;73.20;99168.16;5089545;28;44834;-87
2024/01/07 14:26:43;;;;;;;7.10;3.73;;;;;;;2.73;72.78;99152.00;5090834;28;42346;-86
2024/01/07 14:29:13;;;;;;;4.73;3.70;;;;;;;2.72;72.28;99167.78;5090211;28;39422;-87
2024/01/07 14:31:41;;;;;;;4.70;3.40;;;;;;;2.73;71.32;99177.31;5090504;28;40893;-87
2024/01/07 14:34:09;;;;;;;4.30;3.37;;;;;;;2.76;71.08;99185.06;5072958;28;42236;-87
2024/01/07 14:36:40;;;;;;;4.87;3.73;;;;;;;2.79;71.34;99195.47;5090895;28;40904;-87
2024/01/07 14:39:08;;;;;;;6.43;3.60;;;;;;;2.56;71.18;99142.91;5090290;28;39138;-87
2024/01/07 14:41:37;;;;;;;4.60;2.80;;;;;;;2.49;70.99;99156.13;5091117;28;41027;-88
2024/01/07 14:44:04;;;;;;;5.30;3.57;;;;;;;2.61;70.57;99204.63;5090397;28;44436;-88
2024/01/07 14:46:33;;;;;;;7.03;3.37;;;;;;;2.26;70.66;99145.38;5090020;28;43248;-86
2024/01/07 14:49:01;;;;;;;3.93;3.30;;;;;;;2.70;70.73;99214.00;5089970;28;39093;-87
2024/01/07 14:51:30;;;;;;;5.90;3.80;;;;;;;2.52;70.16;99190.03;5090856;28;40832;-88
2024/01/07 14:53:58;;;;;;;7.70;4.33;;;;;;;2.63;70.52;99217.66;5089746;28;43023;-87
2024/01/07 14:56:25;;;;;;;9.97;5.67;;;;;;;2.42;70.92;99182.47;5090334;28;41339;-87
2024/01/07 14:58:53;;;;;;;6.90;4.43;;;;;;;2.37;70.53;99200.84;5090021;28;39273;-88
2024/01/07 15:01:21;;;;;;;8.37;4.80;;;;;;;2.47;70.72;99218.03;5090165;28;41090;-88
2024/01/07 15:03:50;;;;;;;7.00;4.30;;;;;;;2.17;70.11;99188.28;5089437;28;43091;-87
